sensor_id;sensor_type;location;lat;lon;timestamp;temperature;humidity
8103;DHT22;4094;49.948;11.574;2022-12-07T00:00:06;7.40;70.80
8103;DHT22;4094;49.948;11.574;2022-12-07T00:02:36;7.40;70.70
8103;DHT22;4094;49.948;11.574;2022-12-07T00:05:06;7.40;70.70
8103;DHT22;4094;49.948;11.574;2022-12-07T00:07:36;7.40;71.10
8103;DHT22;4094;49.948;11.574;2022-12-07T00:10:06;7.40;70.80
8103;DHT22;4094;49.948;11.574;2022-12-07T00:12:36;7.30;70.20
8103;DHT22;4094;49.948;11.574;2022-12-07T00:15:06;7.30;69.80
8103;DHT22;4094;49.948;11.574;2022-12-07T00:17:35;7.30;69.70
8103;DHT22;4094;49.948;11.574;2022-12-07T00:20:06;7.30;69.50
8103;DHT22;4094;49.948;11.574;2022-12-07T00:22:36;7.10;69.20
8103;DHT22;4094;49.948;11.574;2022-12-07T00:25:06;7.10;69.10
8103;DHT22;4094;49.948;11.574;2022-12-07T00:27:35;7.00;69.00
8103;DHT22;4094;49.948;11.574;2022-12-07T00:30:05;7.00;69.20
8103;DHT22;4094;49.948;11.574;2022-12-07T00:32:35;6.90;69.20
8103;DHT22;4094;49.948;11.574;2022-12-07T00:35:04;6.80;69.20
8103;DHT22;4094;49.948;11.574;2022-12-07T00:37:33;6.80;69.50
8103;DHT22;4094;49.948;11.574;2022-12-07T00:40:05;6.70;69.70
8103;DHT22;4094;49.948;11.574;2022-12-07T00:42:34;6.70;69.80
8103;DHT22;4094;49.948;11.574;2022-12-07T00:45:04;6.60;69.90
8103;DHT22;4094;49.948;11.574;2022-12-07T00:47:33;6.60;70.00
8103;DHT22;4094;49.948;11.574;2022-12-07T00:50:02;6.60;70.00
8103;DHT22;4094;49.948;11.574;2022-12-07T00:52:31;6.50;70.00
8103;DHT22;4094;49.948;11.574;2022-12-07T00:55:00;6.50;70.00
8103;DHT22;4094;49.948;11.574;2022-12-07T00:57:31;6.50;69.90
8103;DHT22;4094;49.948;11.574;2022-12-07T01:00:00;6.50;69.90
8103;DHT22;4094;49.948;11.574;2022-12-07T01:02:30;6.50;70.00
8103;DHT22;4094;49.948;11.574;2022-12-07T01:04:59;6.40;70.00
8103;DHT22;4094;49.948;11.574;2022-12-07T01:07:28;6.40;70.00
8103;DHT22;4094;49.948;11.574;2022-12-07T01:09:57;6.40;70.00
8103;DHT22;4094;49.948;11.574;2022-12-07T01:12:26;6.40;69.90
8103;DHT22;4094;49.948;11.574;2022-12-07T01:14:56;6.40;69.90
8103;DHT22;4094;49.948;11.574;2022-12-07T01:17:25;6.40;70.00
8103;DHT22;4094;49.948;11.574;2022-12-07T01:19:54;6.30;70.00
8103;DHT22;4094;49.948;11.574;2022-12-07T01:22:23;6.30;70.00
8103;DHT22;4094;49.948;11.574;2022-12-07T01:24:52;6.30;70.10
8103;DHT22;4094;49.948;11.574;2022-12-07T01:27:21;6.30;70.20
8103;DHT22;4094;49.948;11.574;2022-12-07T01:29:51;6.30;70.20
8103;DHT22;4094;49.948;11.574;2022-12-07T01:32:21;6.30;70.20
8103;DHT22;4094;49.948;11.574;2022-12-07T01:34:50;6.30;70.30
8103;DHT22;4094;49.948;11.574;2022-12-07T01:37:19;6.30;70.30
8103;DHT22;4094;49.948;11.574;2022-12-07T01:39:49;6.20;70.40
8103;DHT22;4094;49.948;11.574;2022-12-07T01:42:18;6.20;70.50
8103;DHT22;4094;49.948;11.574;2022-12-07T01:47:55;6.30;70.50
8103;DHT22;4094;49.948;11.574;2022-12-07T01:50:27;6.20;70.30
8103;DHT22;4094;49.948;11.574;2022-12-07T01:53:01;6.20;70.30
8103;DHT22;4094;49.948;11.574;2022-12-07T01:55:31;6.20;70.30
8103;DHT22;4094;49.948;11.574;2022-12-07T01:58:00;6.20;70.20
8103;DHT22;4094;49.948;11.574;2022-12-07T02:00:30;6.20;70.30
8103;DHT22;4094;49.948;11.574;2022-12-07T02:03:05;6.20;70.50
8103;DHT22;4094;49.948;11.574;2022-12-07T02:05:38;6.20;70.60
8103;DHT22;4094;49.948;11.574;2022-12-07T02:08:10;6.20;70.60
8103;DHT22;4094;49.948;11.574;2022-12-07T02:10:41;6.20;70.70
8103;DHT22;4094;49.948;11.574;2022-12-07T02:13:12;6.20;71.00
8103;DHT22;4094;49.948;11.574;2022-12-07T02:15:53;6.20;71.10
8103;DHT22;4094;49.948;11.574;2022-12-07T02:18:38;6.20;70.90
8103;DHT22;4094;49.948;11.574;2022-12-07T02:21:13;6.20;70.80
8103;DHT22;4094;49.948;11.574;2022-12-07T02:24:10;6.20;70.70
8103;DHT22;4094;49.948;11.574;2022-12-07T02:29:50;6.20;71.00
8103;DHT22;4094;49.948;11.574;2022-12-07T02:32:26;6.20;71.20
8103;DHT22;4094;49.948;11.574;2022-12-07T02:35:04;6.20;71.40
8103;DHT22;4094;49.948;11.574;2022-12-07T02:37:37;6.20;71.30
8103;DHT22;4094;49.948;11.574;2022-12-07T02:40:11;6.20;71.60
8103;DHT22;4094;49.948;11.574;2022-12-07T02:42:46;6.20;71.70
8103;DHT22;4094;49.948;11.574;2022-12-07T02:45:20;6.20;71.70
8103;DHT22;4094;49.948;11.574;2022-12-07T02:47:51;6.30;71.80
8103;DHT22;4094;49.948;11.574;2022-12-07T02:50:22;6.30;71.80
8103;DHT22;4094;49.948;11.574;2022-12-07T02:52:51;6.30;71.60
8103;DHT22;4094;49.948;11.574;2022-12-07T02:55:23;6.30;71.60
8103;DHT22;4094;49.948;11.574;2022-12-07T02:58:01;6.40;71.60
8103;DHT22;4094;49.948;11.574;2022-12-07T03:00:44;6.40;71.50
8103;DHT22;4094;49.948;11.574;2022-12-07T03:03:15;6.40;71.50
8103;DHT22;4094;49.948;11.574;2022-12-07T03:06:03;6.40;71.50
8103;DHT22;4094;49.948;11.574;2022-12-07T03:08:45;6.40;71.40
8103;DHT22;4094;49.948;11.574;2022-12-07T03:11:20;6.40;71.30
8103;DHT22;4094;49.948;11.574;2022-12-07T03:13:59;6.40;71.30
8103;DHT22;4094;49.948;11.574;2022-12-07T03:16:35;6.40;71.20
8103;DHT22;4094;49.948;11.574;2022-12-07T03:19:09;6.40;71.00
8103;DHT22;4094;49.948;11.574;2022-12-07T03:21:41;6.40;71.00
8103;DHT22;4094;49.948;11.574;2022-12-07T03:24:15;6.40;70.90
8103;DHT22;4094;49.948;11.574;2022-12-07T03:26:48;6.40;71.00
8103;DHT22;4094;49.948;11.574;2022-12-07T03:29:19;6.40;71.00
8103;DHT22;4094;49.948;11.574;2022-12-07T03:31:55;6.40;71.10
8103;DHT22;4094;49.948;11.574;2022-12-07T03:34:30;6.40;71.20
8103;DHT22;4094;49.948;11.574;2022-12-07T03:37:02;6.40;71.20
8103;DHT22;4094;49.948;11.574;2022-12-07T03:39:36;6.40;71.20
8103;DHT22;4094;49.948;11.574;2022-12-07T03:42:07;6.40;71.30
8103;DHT22;4094;49.948;11.574;2022-12-07T03:44:40;6.40;71.30
8103;DHT22;4094;49.948;11.574;2022-12-07T03:47:14;6.40;71.30
8103;DHT22;4094;49.948;11.574;2022-12-07T03:49:51;6.40;71.30
8103;DHT22;4094;49.948;11.574;2022-12-07T03:52:25;6.40;71.30
8103;DHT22;4094;49.948;11.574;2022-12-07T03:54:57;6.40;71.30
8103;DHT22;4094;49.948;11.574;2022-12-07T03:57:29;6.40;71.30
8103;DHT22;4094;49.948;11.574;2022-12-07T03:59:59;6.40;71.30
8103;DHT22;4094;49.948;11.574;2022-12-07T04:02:40;6.40;71.30
8103;DHT22;4094;49.948;11.574;2022-12-07T04:05:09;6.40;71.50
8103;DHT22;4094;49.948;11.574;2022-12-07T04:07:40;6.40;71.50
8103;DHT22;4094;49.948;11.574;2022-12-07T04:10:10;6.40;71.50
8103;DHT22;4094;49.948;11.574;2022-12-07T04:12:39;6.40;71.50
8103;DHT22;4094;49.948;11.574;2022-12-07T04:15:09;6.40;71.20
8103;DHT22;4094;49.948;11.574;2022-12-07T04:17:39;6.40;71.00
8103;DHT22;4094;49.948;11.574;2022-12-07T04:20:10;6.40;71.00
8103;DHT22;4094;49.948;11.574;2022-12-07T04:22:39;6.40;71.00
8103;DHT22;4094;49.948;11.574;2022-12-07T04:25:08;6.40;71.00
8103;DHT22;4094;49.948;11.574;2022-12-07T04:27:38;6.40;71.00
8103;DHT22;4094;49.948;11.574;2022-12-07T04:30:08;6.50;70.90
8103;DHT22;4094;49.948;11.574;2022-12-07T04:32:37;6.50;70.90
8103;DHT22;4094;49.948;11.574;2022-12-07T04:35:09;6.50;70.90
8103;DHT22;4094;49.948;11.574;2022-12-07T04:37:39;6.50;71.00
8103;DHT22;4094;49.948;11.574;2022-12-07T04:40:10;6.50;71.00
8103;DHT22;4094;49.948;11.574;2022-12-07T04:42:40;6.50;70.90
8103;DHT22;4094;49.948;11.574;2022-12-07T04:45:09;6.50;70.70
8103;DHT22;4094;49.948;11.574;2022-12-07T04:47:38;6.50;70.70
8103;DHT22;4094;49.948;11.574;2022-12-07T04:50:10;6.50;70.60
8103;DHT22;4094;49.948;11.574;2022-12-07T04:52:39;6.50;70.60
8103;DHT22;4094;49.948;11.574;2022-12-07T04:55:08;6.50;70.60
8103;DHT22;4094;49.948;11.574;2022-12-07T04:57:38;6.60;70.70
8103;DHT22;4094;49.948;11.574;2022-12-07T05:00:08;6.50;70.60
8103;DHT22;4094;49.948;11.574;2022-12-07T05:02:37;6.50;70.60
8103;DHT22;4094;49.948;11.574;2022-12-07T05:05:07;6.50;70.60
8103;DHT22;4094;49.948;11.574;2022-12-07T05:07:37;6.60;70.70
8103;DHT22;4094;49.948;11.574;2022-12-07T05:10:07;6.60;70.40
8103;DHT22;4094;49.948;11.574;2022-12-07T05:12:37;6.60;70.40
8103;DHT22;4094;49.948;11.574;2022-12-07T05:15:06;6.60;70.50
8103;DHT22;4094;49.948;11.574;2022-12-07T05:17:35;6.50;70.60
8103;DHT22;4094;49.948;11.574;2022-12-07T05:20:05;6.60;70.80
8103;DHT22;4094;49.948;11.574;2022-12-07T05:22:37;6.50;70.60
8103;DHT22;4094;49.948;11.574;2022-12-07T05:25:06;6.50;70.60
8103;DHT22;4094;49.948;11.574;2022-12-07T05:27:37;6.50;70.60
8103;DHT22;4094;49.948;11.574;2022-12-07T05:30:07;6.50;70.50
8103;DHT22;4094;49.948;11.574;2022-12-07T05:32:36;6.60;70.70
8103;DHT22;4094;49.948;11.574;2022-12-07T05:35:06;6.60;70.50
8103;DHT22;4094;49.948;11.574;2022-12-07T05:37:37;6.60;70.50
8103;DHT22;4094;49.948;11.574;2022-12-07T05:40:08;6.60;70.40
8103;DHT22;4094;49.948;11.574;2022-12-07T05:42:37;6.60;70.50
8103;DHT22;4094;49.948;11.574;2022-12-07T05:45:07;6.50;70.30
8103;DHT22;4094;49.948;11.574;2022-12-07T05:47:38;6.60;70.50
8103;DHT22;4094;49.948;11.574;2022-12-07T05:50:07;6.50;70.50
8103;DHT22;4094;49.948;11.574;2022-12-07T05:52:38;6.60;70.50
8103;DHT22;4094;49.948;11.574;2022-12-07T05:55:07;6.50;70.40
8103;DHT22;4094;49.948;11.574;2022-12-07T05:57:37;6.60;70.40
8103;DHT22;4094;49.948;11.574;2022-12-07T06:00:07;6.50;70.20
8103;DHT22;4094;49.948;11.574;2022-12-07T06:02:38;6.50;70.30
8103;DHT22;4094;49.948;11.574;2022-12-07T06:05:08;6.50;70.20
8103;DHT22;4094;49.948;11.574;2022-12-07T06:07:39;6.50;70.00
8103;DHT22;4094;49.948;11.574;2022-12-07T06:10:09;6.50;70.00
8103;DHT22;4094;49.948;11.574;2022-12-07T06:12:38;6.40;70.00
8103;DHT22;4094;49.948;11.574;2022-12-07T06:15:07;6.40;70.00
8103;DHT22;4094;49.948;11.574;2022-12-07T06:17:38;6.40;70.20
8103;DHT22;4094;49.948;11.574;2022-12-07T06:20:08;6.40;70.20
8103;DHT22;4094;49.948;11.574;2022-12-07T06:22:39;6.30;70.40
8103;DHT22;4094;49.948;11.574;2022-12-07T06:25:08;6.30;70.60
8103;DHT22;4094;49.948;11.574;2022-12-07T06:27:37;6.30;70.70
8103;DHT22;4094;49.948;11.574;2022-12-07T06:30:07;6.30;70.70
8103;DHT22;4094;49.948;11.574;2022-12-07T06:32:37;6.30;71.00
8103;DHT22;4094;49.948;11.574;2022-12-07T06:35:07;6.30;70.90
8103;DHT22;4094;49.948;11.574;2022-12-07T06:37:38;6.30;70.90
8103;DHT22;4094;49.948;11.574;2022-12-07T06:40:08;6.30;70.90
8103;DHT22;4094;49.948;11.574;2022-12-07T06:42:38;6.40;70.90
8103;DHT22;4094;49.948;11.574;2022-12-07T06:45:08;6.30;71.00
8103;DHT22;4094;49.948;11.574;2022-12-07T06:47:38;6.40;71.10
8103;DHT22;4094;49.948;11.574;2022-12-07T06:50:10;6.40;71.00
8103;DHT22;4094;49.948;11.574;2022-12-07T06:52:40;6.40;70.90
8103;DHT22;4094;49.948;11.574;2022-12-07T06:55:09;6.40;71.00
8103;DHT22;4094;49.948;11.574;2022-12-07T06:57:39;6.40;71.00
8103;DHT22;4094;49.948;11.574;2022-12-07T07:00:09;6.40;71.50
8103;DHT22;4094;49.948;11.574;2022-12-07T07:02:46;6.40;71.30
8103;DHT22;4094;49.948;11.574;2022-12-07T07:05:16;6.40;70.90
8103;DHT22;4094;49.948;11.574;2022-12-07T07:07:46;6.40;70.80
8103;DHT22;4094;49.948;11.574;2022-12-07T07:10:36;6.40;70.90
8103;DHT22;4094;49.948;11.574;2022-12-07T07:13:05;6.40;71.20
8103;DHT22;4094;49.948;11.574;2022-12-07T07:15:35;6.50;71.10
8103;DHT22;4094;49.948;11.574;2022-12-07T07:18:06;6.50;71.00
8103;DHT22;4094;49.948;11.574;2022-12-07T07:20:35;6.50;71.00
8103;DHT22;4094;49.948;11.574;2022-12-07T07:23:06;6.50;71.20
8103;DHT22;4094;49.948;11.574;2022-12-07T07:25:35;6.50;71.00
8103;DHT22;4094;49.948;11.574;2022-12-07T07:28:04;6.50;71.00
8103;DHT22;4094;49.948;11.574;2022-12-07T07:30:34;6.50;70.90
8103;DHT22;4094;49.948;11.574;2022-12-07T07:33:03;6.60;71.30
8103;DHT22;4094;49.948;11.574;2022-12-07T07:35:33;6.60;71.20
8103;DHT22;4094;49.948;11.574;2022-12-07T07:38:04;6.60;71.00
8103;DHT22;4094;49.948;11.574;2022-12-07T07:40:33;6.60;71.40
8103;DHT22;4094;49.948;11.574;2022-12-07T07:43:03;6.50;70.50
8103;DHT22;4094;49.948;11.574;2022-12-07T07:45:32;6.50;70.60
8103;DHT22;4094;49.948;11.574;2022-12-07T07:48:01;6.50;70.90
8103;DHT22;4094;49.948;11.574;2022-12-07T07:50:30;6.50;71.00
8103;DHT22;4094;49.948;11.574;2022-12-07T07:52:59;6.60;71.10
8103;DHT22;4094;49.948;11.574;2022-12-07T07:55:30;6.60;71.00
8103;DHT22;4094;49.948;11.574;2022-12-07T07:57:59;6.60;70.80
8103;DHT22;4094;49.948;11.574;2022-12-07T08:00:28;6.60;71.00
8103;DHT22;4094;49.948;11.574;2022-12-07T08:02:58;6.60;70.70
8103;DHT22;4094;49.948;11.574;2022-12-07T08:05:27;6.60;70.60
8103;DHT22;4094;49.948;11.574;2022-12-07T08:07:57;6.60;70.70
8103;DHT22;4094;49.948;11.574;2022-12-07T08:10:26;6.60;70.80
8103;DHT22;4094;49.948;11.574;2022-12-07T08:12:56;6.60;70.90
8103;DHT22;4094;49.948;11.574;2022-12-07T08:15:43;6.60;70.80
8103;DHT22;4094;49.948;11.574;2022-12-07T08:18:13;6.60;70.70
8103;DHT22;4094;49.948;11.574;2022-12-07T08:20:43;6.60;70.80
8103;DHT22;4094;49.948;11.574;2022-12-07T08:23:12;6.60;71.00
8103;DHT22;4094;49.948;11.574;2022-12-07T08:25:41;6.60;71.20
8103;DHT22;4094;49.948;11.574;2022-12-07T08:28:11;6.60;71.10
8103;DHT22;4094;49.948;11.574;2022-12-07T08:30:40;6.60;71.30
8103;DHT22;4094;49.948;11.574;2022-12-07T08:33:11;6.70;71.50
8103;DHT22;4094;49.948;11.574;2022-12-07T08:35:40;6.70;71.30
8103;DHT22;4094;49.948;11.574;2022-12-07T08:38:09;6.70;71.30
8103;DHT22;4094;49.948;11.574;2022-12-07T08:40:38;6.70;71.40
8103;DHT22;4094;49.948;11.574;2022-12-07T08:43:07;6.80;71.40
8103;DHT22;4094;49.948;11.574;2022-12-07T08:45:40;6.80;71.20
8103;DHT22;4094;49.948;11.574;2022-12-07T08:48:12;6.80;71.00
8103;DHT22;4094;49.948;11.574;2022-12-07T08:50:42;6.80;71.40
8103;DHT22;4094;49.948;11.574;2022-12-07T08:53:16;6.80;71.20
8103;DHT22;4094;49.948;11.574;2022-12-07T08:55:46;6.90;71.10
8103;DHT22;4094;49.948;11.574;2022-12-07T08:58:15;6.90;70.80
8103;DHT22;4094;49.948;11.574;2022-12-07T09:00:45;6.90;70.70
8103;DHT22;4094;49.948;11.574;2022-12-07T09:03:14;6.90;70.70
8103;DHT22;4094;49.948;11.574;2022-12-07T09:05:44;6.90;70.70
8103;DHT22;4094;49.948;11.574;2022-12-07T09:08:13;6.90;70.70
8103;DHT22;4094;49.948;11.574;2022-12-07T09:10:43;6.90;70.90
8103;DHT22;4094;49.948;11.574;2022-12-07T09:13:12;6.90;70.80
8103;DHT22;4094;49.948;11.574;2022-12-07T09:15:41;6.90;70.80
8103;DHT22;4094;49.948;11.574;2022-12-07T09:18:11;6.90;71.00
8103;DHT22;4094;49.948;11.574;2022-12-07T09:20:41;6.90;71.00
8103;DHT22;4094;49.948;11.574;2022-12-07T09:23:10;6.90;71.00
8103;DHT22;4094;49.948;11.574;2022-12-07T09:25:39;7.00;71.00
8103;DHT22;4094;49.948;11.574;2022-12-07T09:28:09;7.00;71.10
8103;DHT22;4094;49.948;11.574;2022-12-07T09:30:39;7.00;70.90
8103;DHT22;4094;49.948;11.574;2022-12-07T09:33:34;7.00;71.10
8103;DHT22;4094;49.948;11.574;2022-12-07T09:36:04;7.00;71.00
8103;DHT22;4094;49.948;11.574;2022-12-07T09:38:33;7.00;71.00
8103;DHT22;4094;49.948;11.574;2022-12-07T09:41:05;7.00;71.00
8103;DHT22;4094;49.948;11.574;2022-12-07T09:43:36;7.00;71.00
8103;DHT22;4094;49.948;11.574;2022-12-07T09:46:05;7.00;70.90
8103;DHT22;4094;49.948;11.574;2022-12-07T09:48:38;7.00;70.90
8103;DHT22;4094;49.948;11.574;2022-12-07T09:51:14;7.00;71.40
8103;DHT22;4094;49.948;11.574;2022-12-07T09:53:52;7.00;71.50
8103;DHT22;4094;49.948;11.574;2022-12-07T09:56:22;7.00;71.10
8103;DHT22;4094;49.948;11.574;2022-12-07T09:58:56;7.00;71.00
8103;DHT22;4094;49.948;11.574;2022-12-07T10:01:29;7.00;71.20
8103;DHT22;4094;49.948;11.574;2022-12-07T10:04:08;7.00;71.90
8103;DHT22;4094;49.948;11.574;2022-12-07T10:06:38;7.00;71.50
8103;DHT22;4094;49.948;11.574;2022-12-07T10:09:11;7.00;71.40
8103;DHT22;4094;49.948;11.574;2022-12-07T10:12:00;7.00;71.20
8103;DHT22;4094;49.948;11.574;2022-12-07T10:14:31;7.10;71.30
8103;DHT22;4094;49.948;11.574;2022-12-07T10:17:34;7.00;71.20
8103;DHT22;4094;49.948;11.574;2022-12-07T10:20:21;7.00;71.30
8103;DHT22;4094;49.948;11.574;2022-12-07T10:23:00;7.10;71.30
8103;DHT22;4094;49.948;11.574;2022-12-07T10:25:32;7.10;71.20
8103;DHT22;4094;49.948;11.574;2022-12-07T10:28:17;7.10;71.20
8103;DHT22;4094;49.948;11.574;2022-12-07T10:30:56;7.10;71.10
8103;DHT22;4094;49.948;11.574;2022-12-07T10:33:29;7.10;71.00
8103;DHT22;4094;49.948;11.574;2022-12-07T10:36:09;7.10;71.10
8103;DHT22;4094;49.948;11.574;2022-12-07T10:38:46;7.10;71.30
8103;DHT22;4094;49.948;11.574;2022-12-07T10:41:16;7.10;71.60
8103;DHT22;4094;49.948;11.574;2022-12-07T10:43:50;7.20;71.50
8103;DHT22;4094;49.948;11.574;2022-12-07T10:46:45;7.20;71.40
8103;DHT22;4094;49.948;11.574;2022-12-07T10:55:26;7.20;71.00
8103;DHT22;4094;49.948;11.574;2022-12-07T10:58:18;7.20;71.10
8103;DHT22;4094;49.948;11.574;2022-12-07T11:00:58;7.20;71.30
8103;DHT22;4094;49.948;11.574;2022-12-07T11:06:27;7.20;71.40
8103;DHT22;4094;49.948;11.574;2022-12-07T11:09:12;7.20;71.50
8103;DHT22;4094;49.948;11.574;2022-12-07T11:11:51;7.20;71.50
8103;DHT22;4094;49.948;11.574;2022-12-07T11:14:29;7.20;71.60
8103;DHT22;4094;49.948;11.574;2022-12-07T11:17:11;7.20;71.60
8103;DHT22;4094;49.948;11.574;2022-12-07T11:19:49;7.30;71.60
8103;DHT22;4094;49.948;11.574;2022-12-07T11:22:25;7.30;71.60
8103;DHT22;4094;49.948;11.574;2022-12-07T11:25:15;7.30;71.80
8103;DHT22;4094;49.948;11.574;2022-12-07T11:28:06;7.30;72.00
8103;DHT22;4094;49.948;11.574;2022-12-07T11:30:42;7.40;71.80
8103;DHT22;4094;49.948;11.574;2022-12-07T11:33:22;7.40;71.70
8103;DHT22;4094;49.948;11.574;2022-12-07T11:36:00;7.40;71.60
8103;DHT22;4094;49.948;11.574;2022-12-07T11:38:38;7.50;71.80
8103;DHT22;4094;49.948;11.574;2022-12-07T11:41:12;7.60;72.00
8103;DHT22;4094;49.948;11.574;2022-12-07T11:43:52;7.60;71.80
8103;DHT22;4094;49.948;11.574;2022-12-07T11:46:25;7.80;71.80
8103;DHT22;4094;49.948;11.574;2022-12-07T11:49:01;7.90;71.50
8103;DHT22;4094;49.948;11.574;2022-12-07T11:51:34;7.90;71.00
8103;DHT22;4094;49.948;11.574;2022-12-07T11:54:12;8.00;70.70
8103;DHT22;4094;49.948;11.574;2022-12-07T11:56:46;8.10;70.30
8103;DHT22;4094;49.948;11.574;2022-12-07T11:59:23;8.10;70.60
8103;DHT22;4094;49.948;11.574;2022-12-07T12:01:56;8.10;70.60
8103;DHT22;4094;49.948;11.574;2022-12-07T12:04:35;8.10;70.10
8103;DHT22;4094;49.948;11.574;2022-12-07T12:07:15;8.10;69.70
8103;DHT22;4094;49.948;11.574;2022-12-07T12:10:13;8.10;69.90
8103;DHT22;4094;49.948;11.574;2022-12-07T12:13:19;8.10;70.20
8103;DHT22;4094;49.948;11.574;2022-12-07T12:16:29;8.10;70.00
8103;DHT22;4094;49.948;11.574;2022-12-07T12:22:11;8.10;69.90
8103;DHT22;4094;49.948;11.574;2022-12-07T12:24:42;8.10;69.90
8103;DHT22;4094;49.948;11.574;2022-12-07T12:27:20;8.10;69.90
8103;DHT22;4094;49.948;11.574;2022-12-07T12:29:55;8.10;70.20
8103;DHT22;4094;49.948;11.574;2022-12-07T12:32:36;8.10;69.50
8103;DHT22;4094;49.948;11.574;2022-12-07T12:35:30;8.10;69.40
8103;DHT22;4094;49.948;11.574;2022-12-07T12:38:29;8.10;69.40
8103;DHT22;4094;49.948;11.574;2022-12-07T12:40:59;8.20;68.80
8103;DHT22;4094;49.948;11.574;2022-12-07T12:43:49;8.20;68.90
8103;DHT22;4094;49.948;11.574;2022-12-07T12:46:49;8.20;69.00
8103;DHT22;4094;49.948;11.574;2022-12-07T12:52:55;8.20;68.50
8103;DHT22;4094;49.948;11.574;2022-12-07T12:55:46;8.20;68.40
8103;DHT22;4094;49.948;11.574;2022-12-07T12:58:36;8.20;68.20
8103;DHT22;4094;49.948;11.574;2022-12-07T13:01:42;8.20;68.40
8103;DHT22;4094;49.948;11.574;2022-12-07T13:04:24;8.30;68.80
8103;DHT22;4094;49.948;11.574;2022-12-07T13:06:54;8.30;68.80
8103;DHT22;4094;49.948;11.574;2022-12-07T13:09:25;8.30;68.60
8103;DHT22;4094;49.948;11.574;2022-12-07T13:12:00;8.20;68.40
8103;DHT22;4094;49.948;11.574;2022-12-07T13:14:57;8.30;68.60
8103;DHT22;4094;49.948;11.574;2022-12-07T13:23:29;8.20;67.90
8103;DHT22;4094;49.948;11.574;2022-12-07T13:26:16;8.20;67.80
8103;DHT22;4094;49.948;11.574;2022-12-07T13:28:47;8.20;67.60
8103;DHT22;4094;49.948;11.574;2022-12-07T13:31:30;8.20;67.80
8103;DHT22;4094;49.948;11.574;2022-12-07T13:34:01;8.20;67.80
8103;DHT22;4094;49.948;11.574;2022-12-07T13:36:34;8.10;67.80
8103;DHT22;4094;49.948;11.574;2022-12-07T13:39:19;8.20;67.80
8103;DHT22;4094;49.948;11.574;2022-12-07T13:41:51;8.10;67.70
8103;DHT22;4094;49.948;11.574;2022-12-07T13:44:21;8.10;67.80
8103;DHT22;4094;49.948;11.574;2022-12-07T13:46:57;8.10;67.70
8103;DHT22;4094;49.948;11.574;2022-12-07T13:49:29;8.10;68.10
8103;DHT22;4094;49.948;11.574;2022-12-07T13:52:15;8.10;68.40
8103;DHT22;4094;49.948;11.574;2022-12-07T13:54:46;8.10;69.00
8103;DHT22;4094;49.948;11.574;2022-12-07T13:57:16;8.00;68.60
8103;DHT22;4094;49.948;11.574;2022-12-07T13:59:46;8.00;68.20
8103;DHT22;4094;49.948;11.574;2022-12-07T14:02:20;8.00;68.10
8103;DHT22;4094;49.948;11.574;2022-12-07T14:04:50;8.00;68.70
8103;DHT22;4094;49.948;11.574;2022-12-07T14:07:23;8.00;68.60
8103;DHT22;4094;49.948;11.574;2022-12-07T14:09:55;8.10;68.40
8103;DHT22;4094;49.948;11.574;2022-12-07T14:12:26;8.00;68.40
8103;DHT22;4094;49.948;11.574;2022-12-07T14:14:57;8.00;68.40
8103;DHT22;4094;49.948;11.574;2022-12-07T14:17:29;8.00;68.10
8103;DHT22;4094;49.948;11.574;2022-12-07T14:19:59;8.00;68.40
8103;DHT22;4094;49.948;11.574;2022-12-07T14:22:32;8.00;69.00
8103;DHT22;4094;49.948;11.574;2022-12-07T14:25:19;8.00;68.50
8103;DHT22;4094;49.948;11.574;2022-12-07T14:27:51;8.00;67.80
8103;DHT22;4094;49.948;11.574;2022-12-07T14:30:25;8.00;68.00
8103;DHT22;4094;49.948;11.574;2022-12-07T14:32:57;8.00;67.90
8103;DHT22;4094;49.948;11.574;2022-12-07T14:35:28;8.00;67.80
8103;DHT22;4094;49.948;11.574;2022-12-07T14:37:59;8.00;68.20
8103;DHT22;4094;49.948;11.574;2022-12-07T14:40:28;7.90;67.70
8103;DHT22;4094;49.948;11.574;2022-12-07T14:43:01;7.90;67.60
8103;DHT22;4094;49.948;11.574;2022-12-07T14:45:31;7.90;67.70
8103;DHT22;4094;49.948;11.574;2022-12-07T14:48:00;7.90;67.60
8103;DHT22;4094;49.948;11.574;2022-12-07T14:50:50;7.90;67.60
8103;DHT22;4094;49.948;11.574;2022-12-07T14:53:44;7.80;68.00
8103;DHT22;4094;49.948;11.574;2022-12-07T14:56:22;7.90;68.10
8103;DHT22;4094;49.948;11.574;2022-12-07T14:58:51;7.80;67.80
8103;DHT22;4094;49.948;11.574;2022-12-07T15:01:20;7.80;67.80
8103;DHT22;4094;49.948;11.574;2022-12-07T15:03:49;7.80;67.90
8103;DHT22;4094;49.948;11.574;2022-12-07T15:06:19;7.80;68.00
8103;DHT22;4094;49.948;11.574;2022-12-07T15:08:49;7.80;68.00
8103;DHT22;4094;49.948;11.574;2022-12-07T15:11:18;7.80;67.90
8103;DHT22;4094;49.948;11.574;2022-12-07T15:13:48;7.70;67.90
8103;DHT22;4094;49.948;11.574;2022-12-07T15:16:34;7.70;67.90
8103;DHT22;4094;49.948;11.574;2022-12-07T15:19:24;7.70;67.80
8103;DHT22;4094;49.948;11.574;2022-12-07T15:21:57;7.70;68.00
8103;DHT22;4094;49.948;11.574;2022-12-07T15:24:28;7.70;68.00
8103;DHT22;4094;49.948;11.574;2022-12-07T15:26:57;7.60;67.90
8103;DHT22;4094;49.948;11.574;2022-12-07T15:29:27;7.60;67.90
8103;DHT22;4094;49.948;11.574;2022-12-07T15:31:56;7.60;68.00
8103;DHT22;4094;49.948;11.574;2022-12-07T15:34:26;7.50;68.10
8103;DHT22;4094;49.948;11.574;2022-12-07T15:37:04;7.50;68.10
8103;DHT22;4094;49.948;11.574;2022-12-07T15:39:35;7.50;68.10
8103;DHT22;4094;49.948;11.574;2022-12-07T15:42:04;7.50;68.10
8103;DHT22;4094;49.948;11.574;2022-12-07T15:44:33;7.50;68.10
8103;DHT22;4094;49.948;11.574;2022-12-07T15:47:20;7.50;68.10
8103;DHT22;4094;49.948;11.574;2022-12-07T15:49:49;7.40;68.10
8103;DHT22;4094;49.948;11.574;2022-12-07T15:52:18;7.40;68.30
8103;DHT22;4094;49.948;11.574;2022-12-07T15:54:49;7.40;68.50
8103;DHT22;4094;49.948;11.574;2022-12-07T15:57:18;7.40;68.60
8103;DHT22;4094;49.948;11.574;2022-12-07T15:59:52;7.40;68.60
8103;DHT22;4094;49.948;11.574;2022-12-07T16:02:21;7.40;68.60
8103;DHT22;4094;49.948;11.574;2022-12-07T16:04:52;7.40;68.60
8103;DHT22;4094;49.948;11.574;2022-12-07T16:07:21;7.40;68.60
8103;DHT22;4094;49.948;11.574;2022-12-07T16:09:52;7.40;68.60
8103;DHT22;4094;49.948;11.574;2022-12-07T16:12:21;7.40;68.60
8103;DHT22;4094;49.948;11.574;2022-12-07T16:14:50;7.40;68.50
8103;DHT22;4094;49.948;11.574;2022-12-07T16:17:19;7.40;68.50
8103;DHT22;4094;49.948;11.574;2022-12-07T16:19:48;7.30;68.30
8103;DHT22;4094;49.948;11.574;2022-12-07T16:22:17;7.30;68.40
8103;DHT22;4094;49.948;11.574;2022-12-07T16:24:47;7.30;68.30
8103;DHT22;4094;49.948;11.574;2022-12-07T16:27:17;7.30;68.40
8103;DHT22;4094;49.948;11.574;2022-12-07T16:29:47;7.30;68.40
8103;DHT22;4094;49.948;11.574;2022-12-07T16:32:16;7.30;68.60
8103;DHT22;4094;49.948;11.574;2022-12-07T16:34:46;7.30;68.70
8103;DHT22;4094;49.948;11.574;2022-12-07T16:37:15;7.30;68.60
8103;DHT22;4094;49.948;11.574;2022-12-07T16:39:44;7.30;68.60
8103;DHT22;4094;49.948;11.574;2022-12-07T16:42:13;7.30;68.40
8103;DHT22;4094;49.948;11.574;2022-12-07T16:44:43;7.20;68.30
8103;DHT22;4094;49.948;11.574;2022-12-07T16:47:14;7.20;68.50
8103;DHT22;4094;49.948;11.574;2022-12-07T16:49:43;7.20;68.40
8103;DHT22;4094;49.948;11.574;2022-12-07T16:52:12;7.20;68.60
8103;DHT22;4094;49.948;11.574;2022-12-07T16:54:48;7.20;68.70
8103;DHT22;4094;49.948;11.574;2022-12-07T16:57:18;7.20;68.80
8103;DHT22;4094;49.948;11.574;2022-12-07T16:59:52;7.20;68.70
8103;DHT22;4094;49.948;11.574;2022-12-07T17:02:21;7.20;68.70
8103;DHT22;4094;49.948;11.574;2022-12-07T17:04:50;7.20;68.70
8103;DHT22;4094;49.948;11.574;2022-12-07T17:07:19;7.20;68.60